sensor_id;sensor_type;location;lat;lon;timestamp;P1;durP1;ratioP1;P2;durP2;ratioP2
27163;SDS011;14685;50.618;7.024;2023-11-19T00:00:33;0.82;;;0.50;;
27163;SDS011;14685;50.618;7.024;2023-11-19T00:03:00;1.50;;;0.50;;
27163;SDS011;14685;50.618;7.024;2023-11-19T00:05:28;1.77;;;0.40;;
27163;SDS011;14685;50.618;7.024;2023-11-19T00:07:56;1.55;;;0.52;;
27163;SDS011;14685;50.618;7.024;2023-11-19T00:10:24;1.33;;;0.30;;
27163;SDS011;14685;50.618;7.024;2023-11-19T00:12:51;1.00;;;0.30;;
27163;SDS011;14685;50.618;7.024;2023-11-19T00:15:20;0.35;;;0.35;;
27163;SDS011;14685;50.618;7.024;2023-11-19T00:17:50;8.07;;;0.50;;
27163;SDS011;14685;50.618;7.024;2023-11-19T00:20:18;0.68;;;0.30;;
27163;SDS011;14685;50.618;7.024;2023-11-19T00:22:46;0.52;;;0.40;;
27163;SDS011;14685;50.618;7.024;2023-11-19T00:25:19;0.35;;;0.35;;
27163;SDS011;14685;50.618;7.024;2023-11-19T00:27:48;0.40;;;0.40;;
27163;SDS011;14685;50.618;7.024;2023-11-19T00:30:17;1.17;;;0.40;;
27163;SDS011;14685;50.618;7.024;2023-11-19T00:32:44;0.30;;;0.30;;
27163;SDS011;14685;50.618;7.024;2023-11-19T00:35:12;0.40;;;0.30;;
27163;SDS011;14685;50.618;7.024;2023-11-19T00:37:42;0.90;;;0.40;;
27163;SDS011;14685;50.618;7.024;2023-11-19T00:40:10;0.73;;;0.40;;
27163;SDS011;14685;50.618;7.024;2023-11-19T00:42:38;0.55;;;0.30;;
27163;SDS011;14685;50.618;7.024;2023-11-19T00:45:05;0.40;;;0.40;;
27163;SDS011;14685;50.618;7.024;2023-11-19T00:47:36;0.22;;;0.22;;
27163;SDS011;14685;50.618;7.024;2023-11-19T00:50:05;1.33;;;0.40;;
27163;SDS011;14685;50.618;7.024;2023-11-19T00:52:32;2.35;;;0.40;;
27163;SDS011;14685;50.618;7.024;2023-11-19T00:55:00;0.30;;;0.30;;
27163;SDS011;14685;50.618;7.024;2023-11-19T00:57:27;0.30;;;0.30;;
27163;SDS011;14685;50.618;7.024;2023-11-19T00:59:54;0.90;;;0.40;;
27163;SDS011;14685;50.618;7.024;2023-11-19T01:02:22;3.78;;;0.40;;
27163;SDS011;14685;50.618;7.024;2023-11-19T01:04:50;0.40;;;0.40;;
27163;SDS011;14685;50.618;7.024;2023-11-19T01:07:17;0.50;;;0.30;;
27163;SDS011;14685;50.618;7.024;2023-11-19T01:09:44;0.60;;;0.47;;
27163;SDS011;14685;50.618;7.024;2023-11-19T01:12:11;0.55;;;0.30;;
27163;SDS011;14685;50.618;7.024;2023-11-19T01:14:38;0.52;;;0.32;;
27163;SDS011;14685;50.618;7.024;2023-11-19T01:17:05;3.10;;;0.57;;
27163;SDS011;14685;50.618;7.024;2023-11-19T01:19:33;0.30;;;0.30;;
27163;SDS011;14685;50.618;7.024;2023-11-19T01:22:00;0.95;;;0.30;;
27163;SDS011;14685;50.618;7.024;2023-11-19T01:24:28;0.40;;;0.40;;
27163;SDS011;14685;50.618;7.024;2023-11-19T01:26:57;0.30;;;0.30;;
27163;SDS011;14685;50.618;7.024;2023-11-19T01:29:26;1.00;;;0.50;;
27163;SDS011;14685;50.618;7.024;2023-11-19T01:31:53;0.73;;;0.40;;
27163;SDS011;14685;50.618;7.024;2023-11-19T01:34:20;1.48;;;0.40;;
27163;SDS011;14685;50.618;7.024;2023-11-19T01:36:48;0.80;;;0.45;;
27163;SDS011;14685;50.618;7.024;2023-11-19T01:39:15;0.40;;;0.40;;
27163;SDS011;14685;50.618;7.024;2023-11-19T01:41:43;0.55;;;0.32;;
27163;SDS011;14685;50.618;7.024;2023-11-19T01:44:10;1.55;;;0.45;;
27163;SDS011;14685;50.618;7.024;2023-11-19T01:46:40;0.30;;;0.30;;
27163;SDS011;14685;50.618;7.024;2023-11-19T01:49:08;0.40;;;0.40;;
27163;SDS011;14685;50.618;7.024;2023-11-19T01:51:38;2.25;;;1.52;;
27163;SDS011;14685;50.618;7.024;2023-11-19T01:54:06;0.98;;;0.50;;
27163;SDS011;14685;50.618;7.024;2023-11-19T01:56:35;0.52;;;0.40;;
27163;SDS011;14685;50.618;7.024;2023-11-19T01:59:03;0.35;;;0.35;;
27163;SDS011;14685;50.618;7.024;2023-11-19T02:01:31;0.50;;;0.30;;
27163;SDS011;14685;50.618;7.024;2023-11-19T02:04:01;0.45;;;0.38;;
27163;SDS011;14685;50.618;7.024;2023-11-19T02:06:29;0.82;;;0.45;;
27163;SDS011;14685;50.618;7.024;2023-11-19T02:08:58;0.30;;;0.30;;
27163;SDS011;14685;50.618;7.024;2023-11-19T02:11:28;5.13;;;1.70;;
27163;SDS011;14685;50.618;7.024;2023-11-19T02:13:56;0.85;;;0.60;;
27163;SDS011;14685;50.618;7.024;2023-11-19T02:16:23;0.40;;;0.40;;
27163;SDS011;14685;50.618;7.024;2023-11-19T02:18:50;2.80;;;0.50;;
27163;SDS011;14685;50.618;7.024;2023-11-19T02:21:17;1.05;;;0.40;;
27163;SDS011;14685;50.618;7.024;2023-11-19T02:23:44;0.40;;;0.40;;
27163;SDS011;14685;50.618;7.024;2023-11-19T02:26:18;2.20;;;0.57;;
27163;SDS011;14685;50.618;7.024;2023-11-19T02:28:49;0.30;;;0.30;;
27163;SDS011;14685;50.618;7.024;2023-11-19T02:31:16;0.60;;;0.60;;
27163;SDS011;14685;50.618;7.024;2023-11-19T02:33:43;2.58;;;0.70;;
27163;SDS011;14685;50.618;7.024;2023-11-19T02:36:11;1.88;;;0.70;;
27163;SDS011;14685;50.618;7.024;2023-11-19T02:38:38;1.25;;;0.50;;
27163;SDS011;14685;50.618;7.024;2023-11-19T02:41:05;0.30;;;0.30;;
27163;SDS011;14685;50.618;7.024;2023-11-19T02:43:33;1.48;;;0.30;;
27163;SDS011;14685;50.618;7.024;2023-11-19T02:46:02;1.27;;;0.50;;
27163;SDS011;14685;50.618;7.024;2023-11-19T02:48:41;0.90;;;0.40;;
27163;SDS011;14685;50.618;7.024;2023-11-19T02:51:09;1.58;;;0.65;;
27163;SDS011;14685;50.618;7.024;2023-11-19T02:53:37;0.90;;;0.60;;
27163;SDS011;14685;50.618;7.024;2023-11-19T02:56:06;3.13;;;0.80;;
27163;SDS011;14685;50.618;7.024;2023-11-19T02:58:52;4.47;;;0.88;;
27163;SDS011;14685;50.618;7.024;2023-11-19T03:01:24;4.65;;;0.95;;
27163;SDS011;14685;50.618;7.024;2023-11-19T03:04:00;8.63;;;1.67;;
27163;SDS011;14685;50.618;7.024;2023-11-19T03:06:29;5.28;;;1.48;;
27163;SDS011;14685;50.618;7.024;2023-11-19T03:08:56;3.80;;;0.75;;
27163;SDS011;14685;50.618;7.024;2023-11-19T03:11:23;5.30;;;1.00;;
27163;SDS011;14685;50.618;7.024;2023-11-19T03:13:53;5.53;;;1.35;;
27163;SDS011;14685;50.618;7.024;2023-11-19T03:16:23;2.60;;;0.75;;
27163;SDS011;14685;50.618;7.024;2023-11-19T03:18:50;3.83;;;0.90;;
27163;SDS011;14685;50.618;7.024;2023-11-19T03:21:17;5.00;;;0.93;;
27163;SDS011;14685;50.618;7.024;2023-11-19T03:23:44;4.10;;;1.27;;
27163;SDS011;14685;50.618;7.024;2023-11-19T03:26:11;5.88;;;1.00;;
27163;SDS011;14685;50.618;7.024;2023-11-19T03:28:38;4.70;;;1.23;;
27163;SDS011;14685;50.618;7.024;2023-11-19T03:31:04;5.82;;;1.27;;
27163;SDS011;14685;50.618;7.024;2023-11-19T03:33:35;4.40;;;1.33;;
27163;SDS011;14685;50.618;7.024;2023-11-19T03:36:04;8.25;;;1.60;;
27163;SDS011;14685;50.618;7.024;2023-11-19T03:38:32;4.68;;;1.23;;
27163;SDS011;14685;50.618;7.024;2023-11-19T03:40:59;6.85;;;2.28;;
27163;SDS011;14685;50.618;7.024;2023-11-19T03:43:26;7.32;;;2.05;;
27163;SDS011;14685;50.618;7.024;2023-11-19T03:45:54;4.35;;;1.10;;
27163;SDS011;14685;50.618;7.024;2023-11-19T03:48:22;6.72;;;1.88;;
27163;SDS011;14685;50.618;7.024;2023-11-19T03:50:50;9.70;;;1.73;;
27163;SDS011;14685;50.618;7.024;2023-11-19T03:53:19;6.80;;;1.63;;
27163;SDS011;14685;50.618;7.024;2023-11-19T03:55:46;5.00;;;1.58;;
27163;SDS011;14685;50.618;7.024;2023-11-19T03:58:12;7.72;;;2.08;;
27163;SDS011;14685;50.618;7.024;2023-11-19T04:00:40;6.75;;;1.60;;
27163;SDS011;14685;50.618;7.024;2023-11-19T04:03:08;6.22;;;1.70;;
27163;SDS011;14685;50.618;7.024;2023-11-19T04:05:35;5.75;;;1.88;;
27163;SDS011;14685;50.618;7.024;2023-11-19T04:08:02;6.00;;;1.85;;
27163;SDS011;14685;50.618;7.024;2023-11-19T04:10:29;7.07;;;1.73;;
27163;SDS011;14685;50.618;7.024;2023-11-19T04:12:57;6.40;;;1.30;;
27163;SDS011;14685;50.618;7.024;2023-11-19T04:15:23;7.75;;;1.92;;
27163;SDS011;14685;50.618;7.024;2023-11-19T04:17:50;9.13;;;1.70;;
27163;SDS011;14685;50.618;7.024;2023-11-19T04:20:17;6.65;;;2.15;;
27163;SDS011;14685;50.618;7.024;2023-11-19T04:22:44;6.88;;;1.60;;
27163;SDS011;14685;50.618;7.024;2023-11-19T04:25:13;10.27;;;1.60;;
27163;SDS011;14685;50.618;7.024;2023-11-19T04:27:42;6.38;;;1.60;;
27163;SDS011;14685;50.618;7.024;2023-11-19T04:30:08;6.05;;;1.42;;
27163;SDS011;14685;50.618;7.024;2023-11-19T04:32:37;5.13;;;1.67;;
27163;SDS011;14685;50.618;7.024;2023-11-19T04:35:05;5.72;;;1.63;;
27163;SDS011;14685;50.618;7.024;2023-11-19T04:37:33;4.95;;;1.77;;
27163;SDS011;14685;50.618;7.024;2023-11-19T04:40:01;6.85;;;2.00;;
27163;SDS011;14685;50.618;7.024;2023-11-19T04:42:29;4.88;;;1.65;;
27163;SDS011;14685;50.618;7.024;2023-11-19T04:44:57;4.75;;;1.58;;
27163;SDS011;14685;50.618;7.024;2023-11-19T04:47:24;8.18;;;1.70;;
27163;SDS011;14685;50.618;7.024;2023-11-19T04:49:51;7.22;;;1.80;;
27163;SDS011;14685;50.618;7.024;2023-11-19T04:52:18;9.85;;;2.15;;
27163;SDS011;14685;50.618;7.024;2023-11-19T04:54:45;7.75;;;1.80;;
27163;SDS011;14685;50.618;7.024;2023-11-19T04:57:12;11.07;;;1.63;;
27163;SDS011;14685;50.618;7.024;2023-11-19T04:59:39;4.53;;;1.50;;
27163;SDS011;14685;50.618;7.024;2023-11-19T05:02:06;3.90;;;1.67;;
27163;SDS011;14685;50.618;7.024;2023-11-19T05:04:34;6.13;;;1.58;;
27163;SDS011;14685;50.618;7.024;2023-11-19T05:07:01;5.13;;;1.30;;
27163;SDS011;14685;50.618;7.024;2023-11-19T05:09:30;4.88;;;1.55;;
27163;SDS011;14685;50.618;7.024;2023-11-19T05:11:57;6.75;;;1.88;;
27163;SDS011;14685;50.618;7.024;2023-11-19T05:14:24;6.88;;;2.17;;
27163;SDS011;14685;50.618;7.024;2023-11-19T05:16:52;6.28;;;1.67;;
27163;SDS011;14685;50.618;7.024;2023-11-19T05:19:19;11.25;;;2.10;;
27163;SDS011;14685;50.618;7.024;2023-11-19T05:21:48;6.70;;;1.75;;
27163;SDS011;14685;50.618;7.024;2023-11-19T05:24:18;6.55;;;1.55;;
27163;SDS011;14685;50.618;7.024;2023-11-19T05:26:45;15.43;;;2.95;;
27163;SDS011;14685;50.618;7.024;2023-11-19T05:29:13;9.77;;;2.20;;
27163;SDS011;14685;50.618;7.024;2023-11-19T05:31:40;10.00;;;2.00;;
27163;SDS011;14685;50.618;7.024;2023-11-19T05:34:10;9.38;;;1.85;;
27163;SDS011;14685;50.618;7.024;2023-11-19T05:36:38;8.80;;;1.90;;
27163;SDS011;14685;50.618;7.024;2023-11-19T05:39:06;9.48;;;2.05;;
27163;SDS011;14685;50.618;7.024;2023-11-19T05:41:33;10.82;;;2.28;;
27163;SDS011;14685;50.618;7.024;2023-11-19T05:44:00;14.60;;;2.00;;
27163;SDS011;14685;50.618;7.024;2023-11-19T05:46:26;15.52;;;2.50;;
27163;SDS011;14685;50.618;7.024;2023-11-19T05:48:54;10.57;;;1.83;;
27163;SDS011;14685;50.618;7.024;2023-11-19T05:51:21;11.60;;;2.70;;
27163;SDS011;14685;50.618;7.024;2023-11-19T05:53:50;11.85;;;2.47;;
27163;SDS011;14685;50.618;7.024;2023-11-19T05:56:17;9.02;;;2.50;;
27163;SDS011;14685;50.618;7.024;2023-11-19T05:58:48;11.88;;;2.50;;
27163;SDS011;14685;50.618;7.024;2023-11-19T06:01:15;10.63;;;2.25;;
27163;SDS011;14685;50.618;7.024;2023-11-19T06:03:43;14.70;;;3.33;;
27163;SDS011;14685;50.618;7.024;2023-11-19T06:06:16;12.48;;;2.20;;
27163;SDS011;14685;50.618;7.024;2023-11-19T06:08:43;12.32;;;2.80;;
27163;SDS011;14685;50.618;7.024;2023-11-19T06:11:10;10.75;;;2.50;;
27163;SDS011;14685;50.618;7.024;2023-11-19T06:13:45;11.25;;;2.30;;
27163;SDS011;14685;50.618;7.024;2023-11-19T06:16:12;15.98;;;2.58;;
27163;SDS011;14685;50.618;7.024;2023-11-19T06:18:40;11.13;;;2.47;;
27163;SDS011;14685;50.618;7.024;2023-11-19T06:21:08;10.00;;;2.10;;
27163;SDS011;14685;50.618;7.024;2023-11-19T06:23:35;14.23;;;2.90;;
27163;SDS011;14685;50.618;7.024;2023-11-19T06:26:01;12.00;;;2.63;;
27163;SDS011;14685;50.618;7.024;2023-11-19T06:28:28;9.88;;;2.15;;
27163;SDS011;14685;50.618;7.024;2023-11-19T06:30:55;8.77;;;2.33;;
27163;SDS011;14685;50.618;7.024;2023-11-19T06:33:24;8.73;;;2.00;;
27163;SDS011;14685;50.618;7.024;2023-11-19T06:35:51;10.85;;;2.22;;
27163;SDS011;14685;50.618;7.024;2023-11-19T06:38:18;13.25;;;2.40;;
27163;SDS011;14685;50.618;7.024;2023-11-19T06:40:47;11.48;;;2.17;;
27163;SDS011;14685;50.618;7.024;2023-11-19T06:43:19;12.85;;;2.88;;
27163;SDS011;14685;50.618;7.024;2023-11-19T06:45:51;11.68;;;2.85;;
27163;SDS011;14685;50.618;7.024;2023-11-19T06:48:18;14.07;;;2.70;;
27163;SDS011;14685;50.618;7.024;2023-11-19T06:50:45;10.65;;;2.35;;
27163;SDS011;14685;50.618;7.024;2023-11-19T06:53:12;14.65;;;2.63;;
27163;SDS011;14685;50.618;7.024;2023-11-19T06:55:39;13.32;;;2.22;;
27163;SDS011;14685;50.618;7.024;2023-11-19T06:58:05;12.35;;;2.65;;
27163;SDS011;14685;50.618;7.024;2023-11-19T07:00:33;16.70;;;2.80;;
27163;SDS011;14685;50.618;7.024;2023-11-19T07:03:02;11.63;;;2.67;;
27163;SDS011;14685;50.618;7.024;2023-11-19T07:05:29;14.65;;;2.95;;
27163;SDS011;14685;50.618;7.024;2023-11-19T07:07:56;12.52;;;2.67;;
27163;SDS011;14685;50.618;7.024;2023-11-19T07:10:23;13.48;;;3.13;;
27163;SDS011;14685;50.618;7.024;2023-11-19T07:12:50;16.45;;;3.15;;
27163;SDS011;14685;50.618;7.024;2023-11-19T07:15:17;14.32;;;3.20;;
27163;SDS011;14685;50.618;7.024;2023-11-19T07:17:44;11.75;;;2.85;;
27163;SDS011;14685;50.618;7.024;2023-11-19T07:20:11;12.63;;;2.95;;
27163;SDS011;14685;50.618;7.024;2023-11-19T07:22:43;11.65;;;2.97;;
27163;SDS011;14685;50.618;7.024;2023-11-19T07:25:14;14.23;;;3.13;;
27163;SDS011;14685;50.618;7.024;2023-11-19T07:27:42;17.70;;;3.42;;
27163;SDS011;14685;50.618;7.024;2023-11-19T07:30:09;15.57;;;2.92;;
27163;SDS011;14685;50.618;7.024;2023-11-19T07:32:36;13.27;;;3.05;;
27163;SDS011;14685;50.618;7.024;2023-11-19T07:35:05;10.35;;;2.83;;
27163;SDS011;14685;50.618;7.024;2023-11-19T07:37:33;12.57;;;3.30;;
27163;SDS011;14685;50.618;7.024;2023-11-19T07:40:00;21.52;;;4.82;;
27163;SDS011;14685;50.618;7.024;2023-11-19T07:42:27;16.17;;;3.97;;
27163;SDS011;14685;50.618;7.024;2023-11-19T07:44:55;14.45;;;3.08;;
27163;SDS011;14685;50.618;7.024;2023-11-19T07:47:23;11.85;;;2.97;;
27163;SDS011;14685;50.618;7.024;2023-11-19T07:49:50;11.70;;;2.90;;
27163;SDS011;14685;50.618;7.024;2023-11-19T07:52:17;15.13;;;3.40;;
27163;SDS011;14685;50.618;7.024;2023-11-19T07:54:47;14.27;;;2.78;;
27163;SDS011;14685;50.618;7.024;2023-11-19T07:57:15;16.42;;;3.28;;
27163;SDS011;14685;50.618;7.024;2023-11-19T07:59:42;14.75;;;2.78;;
27163;SDS011;14685;50.618;7.024;2023-11-19T08:02:10;19.17;;;3.00;;
27163;SDS011;14685;50.618;7.024;2023-11-19T08:04:37;18.05;;;3.50;;
27163;SDS011;14685;50.618;7.024;2023-11-19T08:07:06;13.00;;;3.08;;
27163;SDS011;14685;50.618;7.024;2023-11-19T08:09:33;11.50;;;2.85;;
27163;SDS011;14685;50.618;7.024;2023-11-19T08:12:00;17.13;;;3.80;;
27163;SDS011;14685;50.618;7.024;2023-11-19T08:14:27;18.08;;;3.67;;
27163;SDS011;14685;50.618;7.024;2023-11-19T08:16:54;21.42;;;3.63;;
27163;SDS011;14685;50.618;7.024;2023-11-19T08:19:21;19.45;;;3.63;;
27163;SDS011;14685;50.618;7.024;2023-11-19T08:21:49;20.42;;;3.95;;
27163;SDS011;14685;50.618;7.024;2023-11-19T08:24:18;20.75;;;3.53;;
27163;SDS011;14685;50.618;7.024;2023-11-19T08:26:45;13.88;;;3.33;;
27163;SDS011;14685;50.618;7.024;2023-11-19T08:29:28;13.60;;;3.80;;
27163;SDS011;14685;50.618;7.024;2023-11-19T08:31:55;23.10;;;4.20;;
27163;SDS011;14685;50.618;7.024;2023-11-19T08:34:22;17.10;;;4.30;;
27163;SDS011;14685;50.618;7.024;2023-11-19T08:36:50;21.65;;;4.90;;
27163;SDS011;14685;50.618;7.024;2023-11-19T08:39:21;17.30;;;3.25;;
27163;SDS011;14685;50.618;7.024;2023-11-19T08:41:48;15.90;;;3.92;;
27163;SDS011;14685;50.618;7.024;2023-11-19T08:44:15;14.57;;;3.25;;
27163;SDS011;14685;50.618;7.024;2023-11-19T08:46:46;13.40;;;3.03;;
27163;SDS011;14685;50.618;7.024;2023-11-19T08:49:14;19.75;;;3.90;;
27163;SDS011;14685;50.618;7.024;2023-11-19T08:51:43;15.23;;;3.78;;
27163;SDS011;14685;50.618;7.024;2023-11-19T08:54:11;22.58;;;3.70;;
27163;SDS011;14685;50.618;7.024;2023-11-19T08:56:39;20.42;;;4.10;;
27163;SDS011;14685;50.618;7.024;2023-11-19T08:59:06;15.50;;;3.15;;
27163;SDS011;14685;50.618;7.024;2023-11-19T09:01:33;17.98;;;4.55;;
27163;SDS011;14685;50.618;7.024;2023-11-19T09:04:01;17.95;;;3.72;;
27163;SDS011;14685;50.618;7.024;2023-11-19T09:06:28;19.90;;;3.67;;
27163;SDS011;14685;50.618;7.024;2023-11-19T09:08:55;21.00;;;4.15;;
27163;SDS011;14685;50.618;7.024;2023-11-19T09:11:26;19.83;;;4.40;;
27163;SDS011;14685;50.618;7.024;2023-11-19T09:13:56;19.23;;;3.53;;
27163;SDS011;14685;50.618;7.024;2023-11-19T09:16:23;17.50;;;4.28;;
27163;SDS011;14685;50.618;7.024;2023-11-19T09:18:52;20.95;;;3.92;;
27163;SDS011;14685;50.618;7.024;2023-11-19T09:21:19;16.80;;;4.18;;
27163;SDS011;14685;50.618;7.024;2023-11-19T09:23:46;18.27;;;4.47;;
27163;SDS011;14685;50.618;7.024;2023-11-19T09:26:14;25.17;;;4.43;;
27163;SDS011;14685;50.618;7.024;2023-11-19T09:28:42;14.80;;;3.75;;
27163;SDS011;14685;50.618;7.024;2023-11-19T09:31:13;21.15;;;3.70;;
27163;SDS011;14685;50.618;7.024;2023-11-19T09:33:43;22.83;;;4.13;;
27163;SDS011;14685;50.618;7.024;2023-11-19T09:36:14;23.63;;;5.05;;
27163;SDS011;14685;50.618;7.024;2023-11-19T09:38:43;16.90;;;3.75;;
27163;SDS011;14685;50.618;7.024;2023-11-19T09:41:11;20.42;;;4.05;;
27163;SDS011;14685;50.618;7.024;2023-11-19T09:43:40;19.17;;;3.90;;
27163;SDS011;14685;50.618;7.024;2023-11-19T09:46:10;23.98;;;4.10;;
27163;SDS011;14685;50.618;7.024;2023-11-19T09:48:42;23.17;;;4.32;;
27163;SDS011;14685;50.618;7.024;2023-11-19T09:51:11;17.38;;;4.22;;
27163;SDS011;14685;50.618;7.024;2023-11-19T09:53:38;20.70;;;4.10;;
27163;SDS011;14685;50.618;7.024;2023-11-19T09:56:06;20.15;;;4.50;;
27163;SDS011;14685;50.618;7.024;2023-11-19T09:58:34;23.08;;;4.72;;
27163;SDS011;14685;50.618;7.024;2023-11-19T10:01:01;17.90;;;4.00;;
27163;SDS011;14685;50.618;7.024;2023-11-19T10:03:39;23.65;;;3.85;;
27163;SDS011;14685;50.618;7.024;2023-11-19T10:06:16;14.73;;;3.80;;
27163;SDS011;14685;50.618;7.024;2023-11-19T10:08:45;18.77;;;3.75;;
27163;SDS011;14685;50.618;7.024;2023-11-19T10:11:12;25.35;;;4.18;;
27163;SDS011;14685;50.618;7.024;2023-11-19T10:13:40;23.48;;;4.55;;
27163;SDS011;14685;50.618;7.024;2023-11-19T10:16:09;28.75;;;4.63;;
27163;SDS011;14685;50.618;7.024;2023-11-19T10:18:44;21.27;;;5.63;;
27163;SDS011;14685;50.618;7.024;2023-11-19T10:21:12;23.48;;;4.13;;
27163;SDS011;14685;50.618;7.024;2023-11-19T10:26:22;17.40;;;3.92;;
27163;SDS011;14685;50.618;7.024;2023-11-19T10:28:51;25.17;;;3.90;;
27163;SDS011;14685;50.618;7.024;2023-11-19T10:31:19;16.17;;;3.53;;
27163;SDS011;14685;50.618;7.024;2023-11-19T10:33:55;19.25;;;3.58;;
27163;SDS011;14685;50.618;7.024;2023-11-19T10:36:36;21.55;;;4.38;;
27163;SDS011;14685;50.618;7.024;2023-11-19T10:39:07;22.52;;;4.35;;
27163;SDS011;14685;50.618;7.024;2023-11-19T10:41:35;20.60;;;4.68;;
27163;SDS011;14685;50.618;7.024;2023-11-19T10:44:02;19.45;;;5.10;;
27163;SDS011;14685;50.618;7.024;2023-11-19T10:46:39;14.30;;;3.83;;
27163;SDS011;14685;50.618;7.024;2023-11-19T10:49:08;17.50;;;3.55;;
27163;SDS011;14685;50.618;7.024;2023-11-19T10:51:37;17.98;;;3.83;;
27163;SDS011;14685;50.618;7.024;2023-11-19T10:54:11;21.23;;;3.75;;
27163;SDS011;14685;50.618;7.024;2023-11-19T10:56:41;17.80;;;4.03;;
27163;SDS011;14685;50.618;7.024;2023-11-19T10:59:12;21.55;;;4.28;;
27163;SDS011;14685;50.618;7.024;2023-11-19T11:01:44;17.08;;;3.45;;
27163;SDS011;14685;50.618;7.024;2023-11-19T11:04:14;17.40;;;3.78;;
27163;SDS011;14685;50.618;7.024;2023-11-19T11:06:46;15.05;;;3.15;;
27163;SDS011;14685;50.618;7.024;2023-11-19T11:09:15;15.20;;;3.47;;
27163;SDS011;14685;50.618;7.024;2023-11-19T11:11:46;16.85;;;3.08;;
27163;SDS011;14685;50.618;7.024;2023-11-19T11:14:14;17.13;;;3.70;;
27163;SDS011;14685;50.618;7.024;2023-11-19T11:16:46;13.45;;;3.25;;
27163;SDS011;14685;50.618;7.024;2023-11-19T11:19:15;15.45;;;2.97;;
27163;SDS011;14685;50.618;7.024;2023-11-19T11:21:50;16.13;;;3.85;;
27163;SDS011;14685;50.618;7.024;2023-11-19T11:24:29;14.52;;;3.05;;
27163;SDS011;14685;50.618;7.024;2023-11-19T11:32:43;15.27;;;3.53;;
27163;SDS011;14685;50.618;7.024;2023-11-19T11:35:27;17.33;;;3.60;;
27163;SDS011;14685;50.618;7.024;2023-11-19T11:38:06;19.05;;;4.35;;
27163;SDS011;14685;50.618;7.024;2023-11-19T11:40:34;15.95;;;3.85;;
27163;SDS011;14685;50.618;7.024;2023-11-19T11:43:27;12.38;;;3.53;;
27163;SDS011;14685;50.618;7.024;2023-11-19T11:49:00;18.30;;;3.10;;
27163;SDS011;14685;50.618;7.024;2023-11-19T12:02:09;12.10;;;2.72;;
27163;SDS011;14685;50.618;7.024;2023-11-19T12:04:37;13.38;;;2.97;;
27163;SDS011;14685;50.618;7.024;2023-11-19T12:07:06;12.32;;;2.85;;
27163;SDS011;14685;50.618;7.024;2023-11-19T12:09:42;14.27;;;3.58;;
27163;SDS011;14685;50.618;7.024;2023-11-19T12:15:00;14.68;;;3.15;;
27163;SDS011;14685;50.618;7.024;2023-11-19T12:17:36;15.43;;;4.03;;
27163;SDS011;14685;50.618;7.024;2023-11-19T12:22:36;17.67;;;3.47;;
27163;SDS011;14685;50.618;7.024;2023-11-19T12:25:08;14.00;;;3.05;;
27163;SDS011;14685;50.618;7.024;2023-11-19T12:27:42;11.77;;;2.80;;
27163;SDS011;14685;50.618;7.024;2023-11-19T12:32:43;18.80;;;3.45;;
27163;SDS011;14685;50.618;7.024;2023-11-19T12:35:11;16.80;;;3.25;;
27163;SDS011;14685;50.618;7.024;2023-11-19T12:37:42;18.30;;;3.10;;
27163;SDS011;14685;50.618;7.024;2023-11-19T12:40:19;20.30;;;2.88;;
27163;SDS011;14685;50.618;7.024;2023-11-19T12:42:51;9.82;;;2.95;;
27163;SDS011;14685;50.618;7.024;2023-11-19T12:45:21;18.67;;;3.08;;
27163;SDS011;14685;50.618;7.024;2023-11-19T12:48:03;15.90;;;3.63;;
27163;SDS011;14685;50.618;7.024;2023-11-19T12:53:24;17.17;;;3.15;;
27163;SDS011;14685;50.618;7.024;2023-11-19T12:55:54;18.48;;;3.22;;
27163;SDS011;14685;50.618;7.024;2023-11-19T12:58:32;13.60;;;3.42;;
27163;SDS011;14685;50.618;7.024;2023-11-19T13:03:36;13.52;;;3.10;;
27163;SDS011;14685;50.618;7.024;2023-11-19T13:06:05;12.30;;;3.20;;
27163;SDS011;14685;50.618;7.024;2023-11-19T13:08:43;15.20;;;4.25;;
27163;SDS011;14685;50.618;7.024;2023-11-19T13:11:11;15.77;;;4.60;;
27163;SDS011;14685;50.618;7.024;2023-11-19T13:13:55;12.90;;;3.90;;
27163;SDS011;14685;50.618;7.024;2023-11-19T13:16:24;20.02;;;3.40;;
27163;SDS011;14685;50.618;7.024;2023-11-19T13:18:52;15.60;;;3.92;;
27163;SDS011;14685;50.618;7.024;2023-11-19T13:21:19;13.73;;;2.72;;
27163;SDS011;14685;50.618;7.024;2023-11-19T13:23:46;18.75;;;3.67;;
27163;SDS011;14685;50.618;7.024;2023-11-19T13:26:13;15.50;;;3.35;;
27163;SDS011;14685;50.618;7.024;2023-11-19T13:28:40;18.33;;;3.10;;
27163;SDS011;14685;50.618;7.024;2023-11-19T13:31:07;11.13;;;2.58;;
27163;SDS011;14685;50.618;7.024;2023-11-19T13:33:35;15.82;;;3.25;;
27163;SDS011;14685;50.618;7.024;2023-11-19T13:36:03;10.15;;;2.80;;
27163;SDS011;14685;50.618;7.024;2023-11-19T13:38:34;13.40;;;3.03;;
27163;SDS011;14685;50.618;7.024;2023-11-19T13:41:05;15.82;;;2.85;;
27163;SDS011;14685;50.618;7.024;2023-11-19T13:43:38;17.42;;;3.40;;
27163;SDS011;14685;50.618;7.024;2023-11-19T13:46:05;12.35;;;2.92;;
27163;SDS011;14685;50.618;7.024;2023-11-19T13:48:37;20.05;;;3.25;;
27163;SDS011;14685;50.618;7.024;2023-11-19T13:51:05;11.02;;;2.45;;
27163;SDS011;14685;50.618;7.024;2023-11-19T13:53:34;20.20;;;3.40;;
27163;SDS011;14685;50.618;7.024;2023-11-19T13:56:05;18.75;;;3.58;;
27163;SDS011;14685;50.618;7.024;2023-11-19T13:58:32;19.00;;;3.95;;
27163;SDS011;14685;50.618;7.024;2023-11-19T14:01:01;23.55;;;4.57;;
27163;SDS011;14685;50.618;7.024;2023-11-19T14:03:29;12.05;;;3.20;;
27163;SDS011;14685;50.618;7.024;2023-11-19T14:05:56;12.00;;;2.88;;
27163;SDS011;14685;50.618;7.024;2023-11-19T14:08:25;14.38;;;2.92;;
27163;SDS011;14685;50.618;7.024;2023-11-19T14:10:52;11.50;;;2.70;;
27163;SDS011;14685;50.618;7.024;2023-11-19T14:13:22;10.68;;;3.20;;
27163;SDS011;14685;50.618;7.024;2023-11-19T14:15:50;16.02;;;3.40;;
27163;SDS011;14685;50.618;7.024;2023-11-19T14:18:18;17.10;;;3.35;;
27163;SDS011;14685;50.618;7.024;2023-11-19T14:20:45;15.07;;;3.40;;
27163;SDS011;14685;50.618;7.024;2023-11-19T14:23:12;12.95;;;2.92;;
27163;SDS011;14685;50.618;7.024;2023-11-19T14:25:40;12.50;;;2.72;;
27163;SDS011;14685;50.618;7.024;2023-11-19T14:28:07;15.27;;;3.55;;
27163;SDS011;14685;50.618;7.024;2023-11-19T14:30:34;18.45;;;4.50;;
27163;SDS011;14685;50.618;7.024;2023-11-19T14:33:03;17.63;;;3.53;;
27163;SDS011;14685;50.618;7.024;2023-11-19T14:35:32;17.98;;;3.72;;
27163;SDS011;14685;50.618;7.024;2023-11-19T14:38:00;10.50;;;2.83;;
27163;SDS011;14685;50.618;7.024;2023-11-19T14:40:31;15.30;;;3.42;;
27163;SDS011;14685;50.618;7.024;2023-11-19T14:43:01;13.10;;;2.75;;
27163;SDS011;14685;50.618;7.024;2023-11-19T14:45:28;11.48;;;2.75;;
27163;SDS011;14685;50.618;7.024;2023-11-19T14:48:09;13.40;;;2.90;;
27163;SDS011;14685;50.618;7.024;2023-11-19T14:50:36;15.13;;;2.50;;
27163;SDS011;14685;50.618;7.024;2023-11-19T14:53:03;9.80;;;2.58;;
27163;SDS011;14685;50.618;7.024;2023-11-19T14:55:32;15.85;;;3.63;;
27163;SDS011;14685;50.618;7.024;2023-11-19T14:57:59;19.27;;;3.45;;
27163;SDS011;14685;50.618;7.024;2023-11-19T15:00:35;10.18;;;2.90;;
27163;SDS011;14685;50.618;7.024;2023-11-19T15:03:02;12.48;;;3.20;;
27163;SDS011;14685;50.618;7.024;2023-11-19T15:05:29;14.85;;;3.40;;
27163;SDS011;14685;50.618;7.024;2023-11-19T15:07:56;15.05;;;3.40;;
27163;SDS011;14685;50.618;7.024;2023-11-19T15:10:23;11.38;;;3.05;;
27163;SDS011;14685;50.618;7.024;2023-11-19T15:12:51;7.05;;;2.70;;
27163;SDS011;14685;50.618;7.024;2023-11-19T15:15:20;15.18;;;3.17;;
27163;SDS011;14685;50.618;7.024;2023-11-19T15:17:51;14.00;;;3.03;;
27163;SDS011;14685;50.618;7.024;2023-11-19T15:20:18;18.13;;;3.40;;
27163;SDS011;14685;50.618;7.024;2023-11-19T15:22:45;13.60;;;2.95;;
27163;SDS011;14685;50.618;7.024;2023-11-19T15:25:13;14.43;;;3.33;;